createdAt,value
2023-01-25T00:00:45.154Z,101102.19
2023-01-25T00:01:47.564Z,101103.13
2023-01-25T00:02:50.092Z,101083.28
2023-01-25T00:03:53.637Z,101103.81
2023-01-25T00:04:55.826Z,101098.63
2023-01-25T00:06:00.377Z,101100.41
2023-01-25T00:07:02.698Z,101097.16
2023-01-25T00:08:05.476Z,101090.09
2023-01-25T00:09:07.803Z,101093.59
2023-01-25T00:10:10.779Z,101078.91
2023-01-25T00:11:13.024Z,101084.84
2023-01-25T00:12:15.261Z,101088.53
2023-01-25T00:13:17.577Z,101088.50
2023-01-25T00:14:19.959Z,101080.69
2023-01-25T00:15:22.534Z,101086.66
2023-01-25T00:16:24.839Z,101077.25
2023-01-25T00:17:27.230Z,101085.00
2023-01-25T00:18:29.523Z,101083.47
2023-01-25T00:19:31.808Z,101078.09
2023-01-25T00:20:34.041Z,101081.50
2023-01-25T00:21:36.854Z,101081.41
2023-01-25T00:22:39.167Z,101079.56
2023-01-25T00:23:41.650Z,101076.19
2023-01-25T00:24:43.975Z,101079.69
2023-01-25T00:25:46.232Z,101076.06
2023-01-25T00:26:48.724Z,101089.00
2023-01-25T00:27:50.985Z,101088.16
2023-01-25T00:28:54.669Z,101081.25
2023-01-25T00:30:15.652Z,101087.28
2023-01-25T00:32:33.102Z,101084.00
2023-01-25T00:34:31.757Z,101074.50
2023-01-25T00:35:53.063Z,101079.03
2023-01-25T00:36:57.688Z,101069.41
2023-01-25T00:38:02.541Z,101077.09
2023-01-25T00:39:19.859Z,101072.03
2023-01-25T00:40:22.122Z,101072.94
2023-01-25T00:41:24.746Z,101070.38
2023-01-25T00:50:11.009Z,101054.84
2023-01-25T00:51:15.894Z,101046.84
2023-01-25T00:55:24.155Z,101038.56
2023-01-25T00:56:26.723Z,101033.28
2023-01-25T00:57:29.396Z,101040.88
2023-01-25T01:00:10.977Z,101032.34
2023-01-25T01:01:13.907Z,101039.22
2023-01-25T01:02:16.685Z,101031.53
2023-01-25T01:03:19.173Z,101040.91
2023-01-25T01:04:25.030Z,101037.63
2023-01-25T01:05:29.091Z,101036.69
2023-01-25T01:06:50.520Z,101027.13
2023-01-25T01:08:12.355Z,101036.16
2023-01-25T01:09:51.749Z,101035.97
2023-01-25T01:11:00.032Z,101033.03
2023-01-25T01:12:02.316Z,101038.13
2023-01-25T01:13:06.561Z,101033.16
2023-01-25T01:15:05.583Z,101038.25
2023-01-25T01:19:51.126Z,101049.69
2023-01-25T01:20:54.249Z,101045.16
2023-01-25T01:21:57.055Z,101039.00
2023-01-25T01:22:59.259Z,101049.44
2023-01-25T01:24:01.584Z,101040.63
2023-01-25T01:25:04.568Z,101039.00
2023-01-25T01:26:08.933Z,101043.25
2023-01-25T01:27:11.224Z,101041.84
2023-01-25T01:28:13.527Z,101040.91
2023-01-25T01:29:15.824Z,101037.31
2023-01-25T01:30:18.297Z,101040.72
2023-01-25T01:31:23.992Z,101036.34
2023-01-25T01:32:45.287Z,101027.63
2023-01-25T01:33:51.963Z,101031.09
2023-01-25T01:34:54.173Z,101033.72
2023-01-25T01:35:56.821Z,101029.44
2023-01-25T01:36:59.032Z,101029.44
2023-01-25T01:38:01.681Z,101026.88
2023-01-25T01:39:03.887Z,101032.09
2023-01-25T01:40:07.002Z,101037.44
2023-01-25T01:41:11.080Z,101028.97
2023-01-25T01:42:13.861Z,101034.16
2023-01-25T01:43:19.527Z,101034.16
2023-01-25T01:44:45.972Z,101038.41
2023-01-25T01:45:49.030Z,101032.34
2023-01-25T01:46:58.937Z,101032.19
2023-01-25T01:48:04.742Z,101041.66
2023-01-25T01:49:19.923Z,101032.03
2023-01-25T01:50:24.660Z,101042.59
2023-01-25T01:51:49.142Z,101034.84
2023-01-25T01:52:56.356Z,101033.91
2023-01-25T01:54:26.946Z,101035.56
2023-01-25T01:55:29.916Z,101039.06
2023-01-25T01:56:44.508Z,101033.06
2023-01-25T01:57:50.101Z,101038.25
2023-01-25T01:58:55.451Z,101042.56
2023-01-25T02:02:08.543Z,101043.94
2023-01-25T02:03:13.535Z,101035.34
2023-01-25T02:04:18.581Z,101038.94
2023-01-25T02:05:31.060Z,101034.44
2023-01-25T02:06:53.522Z,101037.97
2023-01-25T02:07:56.093Z,101029.28
2023-01-25T02:09:00.765Z,101032.75
2023-01-25T02:10:09.329Z,101027.53
2023-01-25T02:11:12.890Z,101033.50
2023-01-25T02:12:15.942Z,101037.06
2023-01-25T02:13:20.259Z,101029.38
2023-01-25T02:14:22.888Z,101035.38
2023-01-25T02:15:33.424Z,101035.38
2023-01-25T02:16:37.979Z,101024.91
2023-01-25T02:17:41.752Z,101018.97
2023-01-25T02:18:47.106Z,101021.59
2023-01-25T02:20:00.929Z,101029.28
2023-01-25T02:21:03.209Z,101029.19
2023-01-25T02:22:13.358Z,101029.19
2023-01-25T02:23:21.361Z,101033.38
2023-01-25T02:24:33.064Z,101026.56
2023-01-25T02:25:35.644Z,101025.03
2023-01-25T02:26:39.022Z,101028.53
2023-01-25T02:27:46.271Z,101032.06
2023-01-25T02:28:57.537Z,101030.38
2023-01-25T02:30:00.218Z,101025.16
2023-01-25T02:31:02.594Z,101026.03
2023-01-25T02:32:06.685Z,101025.03
2023-01-25T02:33:09.504Z,101009.59
2023-01-25T02:34:11.724Z,101021.84
2023-01-25T02:35:37.472Z,101012.50
2023-01-25T02:36:39.866Z,101019.38
2023-01-25T02:37:42.815Z,101019.97
2023-01-25T02:39:01.295Z,101011.34
2023-01-25T02:40:05.707Z,101011.16
2023-01-25T02:41:23.552Z,101012.06
2023-01-25T02:42:29.601Z,101007.66
2023-01-25T02:43:34.983Z,101010.28
2023-01-25T02:44:39.043Z,101002.53
2023-01-25T02:45:43.516Z,100996.53
2023-01-25T02:46:47.882Z,100999.16
2023-01-25T02:47:50.263Z,101002.59
2023-01-25T02:48:55.367Z,100995.66
2023-01-25T02:49:57.549Z,101000.91
2023-01-25T02:51:00.105Z,101003.41
2023-01-25T02:52:03.339Z,101004.25
2023-01-25T02:53:06.001Z,101006.81
2023-01-25T02:54:10.898Z,101002.59
2023-01-25T02:55:13.346Z,100999.00
2023-01-25T02:56:18.855Z,100995.44
2023-01-25T02:57:23.263Z,100994.47
2023-01-25T02:58:25.592Z,101004.06
2023-01-25T02:59:27.850Z,101003.25
2023-01-25T03:00:33.848Z,100999.78
2023-01-25T03:01:38.026Z,100998.31
2023-01-25T03:02:40.415Z,100995.63
2023-01-25T03:03:42.740Z,100999.94
2023-01-25T03:04:45.155Z,101005.28
2023-01-25T03:05:47.586Z,100996.50
2023-01-25T03:06:50.369Z,101000.66
2023-01-25T03:07:53.647Z,100995.66
2023-01-25T03:08:55.858Z,100993.91
2023-01-25T03:09:58.142Z,100993.19
2023-01-25T03:11:03.281Z,100993.88
2023-01-25T03:12:06.678Z,100989.50
2023-01-25T03:13:11.131Z,100983.53
2023-01-25T03:14:13.574Z,100989.63
2023-01-25T03:15:15.895Z,100986.88
2023-01-25T03:16:18.403Z,100982.56
2023-01-25T03:17:20.931Z,100994.69
2023-01-25T03:18:23.364Z,101001.56
2023-01-25T03:19:26.186Z,100997.34
2023-01-25T03:20:28.473Z,100992.19
2023-01-25T03:21:30.930Z,100990.59
2023-01-25T03:22:33.375Z,100989.78
2023-01-25T03:23:36.092Z,100985.38
2023-01-25T03:24:39.338Z,100991.22
2023-01-25T03:25:42.506Z,100989.50
2023-01-25T03:27:08.335Z,100985.34
2023-01-25T03:28:18.669Z,100992.81
2023-01-25T03:29:23.489Z,100983.28
2023-01-25T03:30:26.182Z,100984.13
2023-01-25T03:31:29.450Z,100986.00
2023-01-25T03:32:32.811Z,100984.25
2023-01-25T03:33:40.994Z,100978.91
2023-01-25T03:34:43.364Z,100986.72
2023-01-25T03:35:46.142Z,100978.97
2023-01-25T03:36:48.546Z,100985.16
2023-01-25T03:37:50.842Z,100976.50
2023-01-25T03:38:53.777Z,100977.34
2023-01-25T03:39:56.435Z,100972.97
2023-01-25T03:40:59.507Z,100974.84
2023-01-25T03:42:02.586Z,100974.91
2023-01-25T03:43:06.381Z,100977.34
2023-01-25T03:44:11.440Z,100987.00
2023-01-25T03:45:14.339Z,100976.66
2023-01-25T03:46:16.647Z,100980.91
2023-01-25T03:47:18.853Z,100974.75
2023-01-25T03:48:22.492Z,100985.84
2023-01-25T03:49:24.939Z,100986.75
2023-01-25T03:50:28.495Z,100990.03
2023-01-25T03:51:30.846Z,100985.63
2023-01-25T03:52:38.418Z,100977.94
2023-01-25T03:53:41.995Z,100974.56
2023-01-25T03:54:49.236Z,100974.59
2023-01-25T03:55:51.536Z,100975.41
2023-01-25T03:56:54.081Z,100982.34
2023-01-25T03:58:00.635Z,100979.66
2023-01-25T03:59:03.395Z,100985.88
2023-01-25T04:00:07.590Z,100976.66
2023-01-25T04:01:17.715Z,100983.31
2023-01-25T04:02:20.164Z,100984.91
2023-01-25T04:03:22.855Z,100985.84
2023-01-25T04:04:25.148Z,100977.94
2023-01-25T04:05:28.286Z,100974.44
2023-01-25T04:06:31.061Z,100975.28
2023-01-25T04:07:34.187Z,100979.81
2023-01-25T04:08:37.746Z,100981.22
2023-01-25T04:09:41.216Z,100983.75
2023-01-25T04:10:45.807Z,100981.34
2023-01-25T04:11:51.105Z,100990.88
2023-01-25T04:12:53.779Z,100985.84
2023-01-25T04:13:56.079Z,100980.47
2023-01-25T04:15:00.772Z,100974.41
2023-01-25T04:16:05.129Z,100983.81
2023-01-25T04:17:32.151Z,100982.91
2023-01-25T04:18:37.835Z,100978.59
2023-01-25T04:19:40.075Z,100982.97
2023-01-25T04:20:53.586Z,100976.28
2023-01-25T04:21:56.128Z,100980.44
2023-01-25T04:23:03.130Z,100979.53
2023-01-25T04:24:11.297Z,100975.28
2023-01-25T04:25:15.899Z,100966.53
2023-01-25T04:26:23.507Z,100967.41
2023-01-25T04:29:41.773Z,100963.31
2023-01-25T04:30:49.094Z,100962.34
2023-01-25T04:31:52.046Z,100962.28
2023-01-25T04:32:54.440Z,100970.03
2023-01-25T04:34:04.579Z,100967.38
2023-01-25T04:35:07.470Z,100953.59
2023-01-25T04:36:11.448Z,100952.91
2023-01-25T04:37:13.926Z,100961.38
2023-01-25T04:38:26.510Z,100955.38
2023-01-25T04:39:29.523Z,100958.81
2023-01-25T04:40:32.597Z,100956.97
2023-01-25T04:41:34.869Z,100956.22
2023-01-25T04:42:37.289Z,100964.13
2023-01-25T04:43:40.144Z,100956.34
2023-01-25T04:44:45.409Z,100955.31
2023-01-25T04:45:49.232Z,100952.63
2023-01-25T04:46:58.523Z,100958.56
2023-01-25T04:48:03.543Z,100962.00
2023-01-25T04:49:06.508Z,100948.34
2023-01-25T04:50:10.973Z,100958.69
2023-01-25T04:51:14.364Z,100955.97
2023-01-25T04:52:17.131Z,100955.41
2023-01-25T04:53:19.644Z,100956.06
2023-01-25T04:54:22.148Z,100960.53
2023-01-25T04:55:24.386Z,100961.19
2023-01-25T04:56:28.272Z,100952.63
2023-01-25T04:57:34.346Z,100947.38
2023-01-25T04:58:36.695Z,100960.47
2023-01-25T04:59:39.211Z,100959.66
2023-01-25T05:00:41.635Z,100952.81
2023-01-25T05:01:46.544Z,100956.09
2023-01-25T05:02:48.989Z,100953.44
2023-01-25T05:03:51.272Z,100951.69
2023-01-25T05:05:10.526Z,100951.59
2023-01-25T05:06:13.122Z,100951.41
2023-01-25T05:07:15.724Z,100949.69
2023-01-25T05:08:18.021Z,100942.03
2023-01-25T05:09:20.905Z,100947.03
2023-01-25T05:10:23.389Z,100949.66
2023-01-25T05:11:51.626Z,100949.78
2023-01-25T05:13:05.970Z,100949.16
2023-01-25T05:14:08.321Z,100951.56
2023-01-25T05:15:11.540Z,100954.88
2023-01-25T05:16:14.167Z,100954.78
2023-01-25T05:17:16.819Z,100950.44
2023-01-25T05:18:19.538Z,100957.25
2023-01-25T05:19:23.704Z,100944.41
2023-01-25T05:20:32.733Z,100947.00
2023-01-25T05:21:53.534Z,100942.84
2023-01-25T05:22:55.807Z,100939.28
2023-01-25T05:23:58.308Z,100942.00
2023-01-25T05:25:02.745Z,100944.53
2023-01-25T05:26:23.603Z,100941.94
2023-01-25T05:27:26.458Z,100940.91
2023-01-25T05:28:28.686Z,100945.97
2023-01-25T05:29:51.426Z,100941.66
2023-01-25T05:30:56.163Z,100947.63
2023-01-25T05:32:16.861Z,100946.16
2023-01-25T05:33:19.680Z,100950.44
2023-01-25T05:34:21.988Z,100951.41
2023-01-25T05:35:24.691Z,100949.50
2023-01-25T05:36:30.099Z,100946.91
2023-01-25T05:37:32.425Z,100946.28
2023-01-25T05:38:39.475Z,100947.97
2023-01-25T05:39:44.021Z,100946.19
2023-01-25T05:40:46.524Z,100947.94
2023-01-25T05:41:49.077Z,100950.63
2023-01-25T05:42:59.620Z,100946.09
2023-01-25T05:44:04.358Z,100950.34
2023-01-25T05:45:09.259Z,100945.16
2023-01-25T05:46:14.439Z,100948.81
2023-01-25T05:47:18.206Z,100940.13
2023-01-25T05:48:20.780Z,100941.69
2023-01-25T05:49:23.363Z,100937.25
2023-01-25T05:50:26.597Z,100942.69
2023-01-25T05:51:51.511Z,100947.81
2023-01-25T05:52:55.146Z,100941.63
2023-01-25T05:53:57.599Z,100943.22
2023-01-25T05:55:00.140Z,100945.13
2023-01-25T05:56:06.894Z,100935.91
2023-01-25T05:57:10.346Z,100939.25
2023-01-25T05:58:13.878Z,100935.75
2023-01-25T05:59:17.439Z,100938.53
2023-01-25T06:00:20.321Z,100931.31
2023-01-25T06:01:23.266Z,100932.16
2023-01-25T06:02:29.556Z,100919.34
2023-01-25T06:03:36.318Z,100929.63
2023-01-25T06:04:40.038Z,100930.59
2023-01-25T06:05:44.737Z,100925.56
2023-01-25T06:06:47.473Z,100925.66
2023-01-25T06:07:49.701Z,100917.88
2023-01-25T06:08:53.943Z,100915.22
2023-01-25T06:09:56.327Z,100918.72
2023-01-25T06:10:59.339Z,100917.81
2023-01-25T06:12:02.147Z,100914.53
2023-01-25T06:13:04.865Z,100915.38
2023-01-25T06:14:07.224Z,100909.31
2023-01-25T06:15:10.578Z,100903.56
2023-01-25T06:16:13.605Z,100900.16
2023-01-25T06:17:19.014Z,100908.31
2023-01-25T06:18:33.401Z,100897.28
2023-01-25T06:19:48.659Z,100896.44
2023-01-25T06:21:11.586Z,100891.25
2023-01-25T06:22:14.519Z,100896.44
2023-01-25T06:23:17.237Z,100889.41
2023-01-25T06:24:19.720Z,100890.44
2023-01-25T06:25:22.109Z,100888.00
2023-01-25T06:26:24.584Z,100889.69
2023-01-25T06:27:31.556Z,100894.06
2023-01-25T06:28:35.604Z,100892.31
2023-01-25T06:29:38.163Z,100896.53
2023-01-25T06:30:40.539Z,100882.72
2023-01-25T06:31:46.100Z,100886.34
2023-01-25T06:32:50.345Z,100888.88
2023-01-25T06:33:53.302Z,100875.97
2023-01-25T06:34:57.694Z,100883.56
2023-01-25T06:36:06.648Z,100885.22
2023-01-25T06:37:08.892Z,100888.84
2023-01-25T06:38:11.078Z,100891.28
2023-01-25T06:39:13.455Z,100887.94
2023-01-25T06:40:16.088Z,100886.34
2023-01-25T06:41:19.693Z,100885.53
2023-01-25T06:42:24.480Z,100872.75
2023-01-25T06:43:26.765Z,100882.06
2023-01-25T06:44:29.886Z,100879.38
2023-01-25T06:45:33.171Z,100882.91
2023-01-25T06:46:35.383Z,100889.69
2023-01-25T06:47:37.731Z,100882.88
2023-01-25T06:48:42.705Z,100881.03
2023-01-25T06:49:44.964Z,100882.66
2023-01-25T06:50:53.918Z,100878.81
2023-01-25T06:51:56.142Z,100888.16
2023-01-25T06:52:58.474Z,100890.66
2023-01-25T06:54:04.127Z,100883.75
2023-01-25T06:55:08.515Z,100891.47
2023-01-25T06:56:19.114Z,100886.53
2023-01-25T06:57:21.357Z,100886.53
2023-01-25T06:58:23.646Z,100886.34
2023-01-25T06:59:25.859Z,100879.78
2023-01-25T07:00:28.072Z,100882.44
2023-01-25T07:01:30.641Z,100884.06
2023-01-25T07:02:33.083Z,100887.38
2023-01-25T07:03:35.407Z,100889.16
2023-01-25T07:04:37.585Z,100886.53
2023-01-25T07:05:39.801Z,100883.19
2023-01-25T07:06:42.054Z,100886.69
2023-01-25T07:07:47.195Z,100887.72
2023-01-25T07:08:50.036Z,100884.72
2023-01-25T07:09:52.399Z,100878.97
2023-01-25T07:10:59.659Z,100878.84
2023-01-25T07:12:04.578Z,100880.44
2023-01-25T07:13:06.792Z,100880.47
2023-01-25T07:14:09.026Z,100884.25
2023-01-25T07:15:11.808Z,100881.63
2023-01-25T07:16:17.275Z,100880.59
2023-01-25T07:17:19.494Z,100876.97
2023-01-25T07:18:21.938Z,100878.66
2023-01-25T07:19:24.198Z,100880.53
2023-01-25T07:20:26.507Z,100878.81
2023-01-25T07:21:28.777Z,100881.44
2023-01-25T07:22:31.011Z,100880.59
2023-01-25T07:23:34.013Z,100877.91
2023-01-25T07:24:36.235Z,100877.25
2023-01-25T07:25:43.795Z,100875.66
2023-01-25T07:26:46.738Z,100873.34
2023-01-25T07:27:49.131Z,100876.84
2023-01-25T07:28:52.952Z,100876.53
2023-01-25T07:29:55.316Z,100872.13
2023-01-25T07:31:04.224Z,100880.72
2023-01-25T07:32:06.699Z,100879.03
2023-01-25T07:33:09.904Z,100873.81
2023-01-25T07:34:13.310Z,100882.28
2023-01-25T07:35:15.643Z,100875.81
2023-01-25T07:36:19.142Z,100864.06
2023-01-25T07:37:21.676Z,100869.75
2023-01-25T07:38:23.994Z,100880.03
2023-01-25T07:39:26.206Z,100862.94
2023-01-25T07:40:28.442Z,100877.31
2023-01-25T07:41:30.733Z,100876.56
2023-01-25T07:42:32.958Z,100869.06
2023-01-25T07:43:48.739Z,100869.06
2023-01-25T07:45:03.932Z,100868.13
2023-01-25T07:46:08.278Z,100874.06
2023-01-25T07:47:10.650Z,100868.81
2023-01-25T07:48:12.873Z,100868.03
2023-01-25T07:49:15.170Z,100875.94
2023-01-25T07:50:17.350Z,100869.31
2023-01-25T07:51:30.082Z,100879.38
2023-01-25T07:52:32.315Z,100872.25
2023-01-25T07:53:34.533Z,100876.66
2023-01-25T07:54:36.764Z,100875.94
2023-01-25T07:55:39.495Z,100888.22
2023-01-25T07:56:41.776Z,100875.06
2023-01-25T07:57:43.998Z,100870.78
2023-01-25T07:58:46.657Z,100877.69
2023-01-25T07:59:49.768Z,100874.44
2023-01-25T08:00:52.015Z,100876.91
2023-01-25T08:01:54.246Z,100870.06
2023-01-25T08:02:56.460Z,100875.28
2023-01-25T08:03:58.771Z,100873.56
2023-01-25T08:05:00.980Z,100878.59
2023-01-25T08:06:06.270Z,100875.34
2023-01-25T08:07:08.594Z,100874.00
2023-01-25T08:08:10.818Z,100868.06
2023-01-25T08:09:19.909Z,100871.56
2023-01-25T08:10:22.235Z,100872.47
2023-01-25T08:11:27.538Z,100879.22
2023-01-25T08:12:29.787Z,100871.97
2023-01-25T08:13:32.047Z,100881.31
2023-01-25T08:14:34.330Z,100871.00
2023-01-25T08:15:36.633Z,100880.69
2023-01-25T08:16:38.929Z,100874.50
2023-01-25T08:17:41.200Z,100872.84
2023-01-25T08:18:43.931Z,100878.78
2023-01-25T08:19:47.268Z,100871.94
2023-01-25T08:20:49.456Z,100881.59
2023-01-25T08:21:52.423Z,100882.31
2023-01-25T08:22:54.589Z,100886.41
2023-01-25T08:24:01.458Z,100883.31
2023-01-25T08:25:04.543Z,100873.84
2023-01-25T08:26:08.429Z,100874.69
2023-01-25T08:27:10.664Z,100872.06
2023-01-25T08:28:12.897Z,100876.41
2023-01-25T08:29:15.222Z,100878.16
2023-01-25T08:30:17.733Z,100872.81
2023-01-25T08:31:24.041Z,100873.53
2023-01-25T08:32:26.260Z,100886.47
2023-01-25T08:33:28.458Z,100871.88
2023-01-25T08:34:31.985Z,100874.47
2023-01-25T08:35:36.656Z,100875.50
2023-01-25T08:36:38.867Z,100868.56
2023-01-25T08:37:41.088Z,100869.53
2023-01-25T08:38:43.323Z,100865.22
2023-01-25T08:39:45.843Z,100869.81
2023-01-25T08:40:48.157Z,100865.56
2023-01-25T08:41:50.438Z,100868.00
2023-01-25T08:42:52.655Z,100869.59
2023-01-25T08:43:56.007Z,100871.56
2023-01-25T08:44:58.476Z,100864.66
2023-01-25T08:46:00.888Z,100869.53
2023-01-25T08:47:03.149Z,100865.31
2023-01-25T08:48:05.569Z,100864.66
2023-01-25T08:49:10.228Z,100863.81
2023-01-25T08:50:12.726Z,100865.03
2023-01-25T08:51:16.954Z,100869.81
2023-01-25T08:52:21.745Z,100862.16
2023-01-25T08:53:24.236Z,100865.63
2023-01-25T08:54:26.476Z,100864.16
2023-01-25T08:55:28.743Z,100865.94
2023-01-25T08:56:31.013Z,100870.94
2023-01-25T08:57:33.465Z,100870.00
2023-01-25T08:58:38.301Z,100863.25
2023-01-25T08:59:40.581Z,100858.16
2023-01-25T09:00:43.691Z,100864.03
2023-01-25T09:01:46.021Z,100857.75
2023-01-25T09:02:48.259Z,100869.81
2023-01-25T09:03:51.195Z,100868.97
2023-01-25T09:04:53.518Z,100863.00
2023-01-25T09:05:55.851Z,100866.38
2023-01-25T09:06:58.118Z,100853.75
2023-01-25T09:08:01.103Z,100853.94
2023-01-25T09:09:04.653Z,100860.69
2023-01-25T09:10:09.092Z,100859.00
2023-01-25T09:11:15.384Z,100861.53
2023-01-25T09:12:17.598Z,100855.41
2023-01-25T09:13:19.855Z,100861.53
2023-01-25T09:14:22.609Z,100858.97
2023-01-25T09:15:24.805Z,100858.19
2023-01-25T09:16:30.528Z,100860.44
2023-01-25T09:17:32.810Z,100856.41
2023-01-25T09:18:37.533Z,100856.59
2023-01-25T09:19:42.059Z,100853.22
2023-01-25T09:20:44.315Z,100849.88
2023-01-25T09:21:48.109Z,100860.56
2023-01-25T09:22:50.323Z,100844.94
2023-01-25T09:24:09.096Z,100852.56
2023-01-25T09:25:11.513Z,100853.50
2023-01-25T09:26:15.378Z,100850.09
2023-01-25T09:27:18.039Z,100851.66
2023-01-25T09:28:20.233Z,100857.78
2023-01-25T09:29:22.521Z,100859.16
2023-01-25T09:30:37.307Z,100854.75
2023-01-25T09:31:52.481Z,100859.81
2023-01-25T09:33:08.733Z,100859.72
2023-01-25T09:34:12.711Z,100861.31
2023-01-25T09:35:14.950Z,100859.81
2023-01-25T09:36:17.624Z,100858.09
2023-01-25T09:37:19.792Z,100856.22
2023-01-25T09:38:22.784Z,100855.47
2023-01-25T09:39:25.479Z,100851.88
2023-01-25T09:40:37.403Z,100853.47
2023-01-25T09:41:42.272Z,100856.38
2023-01-25T09:43:12.797Z,100852.78
2023-01-25T09:44:36.447Z,100843.03
2023-01-25T09:45:38.720Z,100850.03
2023-01-25T09:46:56.034Z,100850.97
2023-01-25T09:48:18.225Z,100852.22
2023-01-25T09:49:38.908Z,100845.81
2023-01-25T09:51:03.705Z,100846.03
2023-01-25T09:52:22.365Z,100847.03
2023-01-25T09:53:49.851Z,100850.63
2023-01-25T09:54:52.962Z,100855.84
2023-01-25T09:55:59.603Z,100854.09
2023-01-25T09:57:02.285Z,100845.25
2023-01-25T09:58:10.323Z,100852.88
2023-01-25T09:59:17.676Z,100845.81
2023-01-25T10:00:31.619Z,100846.75
2023-01-25T10:01:54.928Z,100849.75
2023-01-25T10:03:03.476Z,100852.03
2023-01-25T10:04:18.647Z,100849.66
2023-01-25T10:05:25.623Z,100851.56
2023-01-25T10:06:46.134Z,100844.59
2023-01-25T10:08:26.370Z,100847.03
2023-01-25T10:09:45.241Z,100852.81
2023-01-25T10:10:50.964Z,100847.00
2023-01-25T10:11:53.290Z,100846.72
2023-01-25T10:12:55.591Z,100854.38
2023-01-25T10:13:58.873Z,100849.13
2023-01-25T10:15:01.122Z,100845.94
2023-01-25T10:16:20.938Z,100841.75
2023-01-25T10:17:33.019Z,100841.84
2023-01-25T10:18:42.300Z,100836.72
2023-01-25T10:20:12.756Z,100838.53
2023-01-25T10:21:23.679Z,100835.84
2023-01-25T10:22:32.728Z,100830.56
2023-01-25T10:23:43.760Z,100838.25
2023-01-25T10:25:24.057Z,100836.06
2023-01-25T10:26:38.238Z,100831.06
2023-01-25T10:27:58.443Z,100822.38
2023-01-25T10:29:20.988Z,100825.69
2023-01-25T10:30:31.957Z,100831.44
2023-01-25T10:31:50.062Z,100828.69
2023-01-25T10:32:56.318Z,100826.53
2023-01-25T10:34:02.393Z,100827.19
2023-01-25T10:35:35.985Z,100817.13
2023-01-25T10:36:39.692Z,100820.91
2023-01-25T10:37:42.303Z,100825.38
2023-01-25T10:38:57.304Z,100813.22
2023-01-25T10:40:22.719Z,100822.16
2023-01-25T10:41:38.233Z,100825.16
2023-01-25T10:42:48.549Z,100824.50
2023-01-25T10:44:10.974Z,100824.78
2023-01-25T10:45:15.167Z,100823.94
2023-01-25T10:46:22.044Z,100819.94
2023-01-25T10:47:35.041Z,100820.66
2023-01-25T10:48:38.957Z,100820.41
2023-01-25T10:49:58.477Z,100818.25
2023-01-25T10:51:01.684Z,100816.41
2023-01-25T10:52:34.173Z,100822.66
2023-01-25T10:53:45.578Z,100811.69
2023-01-25T10:55:07.194Z,100817.44
2023-01-25T10:56:19.292Z,100811.09
2023-01-25T10:57:22.631Z,100809.66
2023-01-25T10:58:36.461Z,100805.41
2023-01-25T10:59:39.203Z,100810.91
2023-01-25T11:00:41.540Z,100809.03
2023-01-25T11:01:44.227Z,100810.06
2023-01-25T11:02:49.177Z,100809.31
2023-01-25T11:03:51.901Z,100809.63
2023-01-25T11:04:54.098Z,100801.56
2023-01-25T11:05:57.751Z,100808.44
2023-01-25T11:07:05.723Z,100808.25
2023-01-25T11:08:42.945Z,100811.16
2023-01-25T11:09:45.141Z,100804.53
2023-01-25T11:10:47.393Z,100794.09
2023-01-25T11:12:17.679Z,100804.78
2023-01-25T11:13:26.083Z,100802.22
2023-01-25T11:14:31.078Z,100790.88
2023-01-25T11:15:35.159Z,100789.94
2023-01-25T11:16:40.508Z,100795.09
2023-01-25T11:17:42.698Z,100794.16
2023-01-25T11:18:53.794Z,100779.47
2023-01-25T11:20:18.361Z,100777.56
2023-01-25T11:21:26.223Z,100780.97
2023-01-25T11:22:30.640Z,100775.88
2023-01-25T11:23:33.727Z,100778.53
2023-01-25T11:24:36.639Z,100787.88
2023-01-25T11:25:38.857Z,100776.59
2023-01-25T11:26:41.676Z,100775.56
2023-01-25T11:27:43.916Z,100774.53
2023-01-25T11:28:49.833Z,100775.19
2023-01-25T11:30:17.203Z,100770.09
2023-01-25T11:31:22.940Z,100763.38
2023-01-25T11:32:25.566Z,100764.88
2023-01-25T11:33:28.175Z,100762.34
2023-01-25T11:34:30.793Z,100765.78
2023-01-25T11:35:36.588Z,100770.78
2023-01-25T11:36:51.527Z,100762.19
2023-01-25T11:37:53.683Z,100752.69
2023-01-25T11:39:21.975Z,100755.69
2023-01-25T11:40:32.225Z,100756.03
2023-01-25T11:42:08.709Z,100751.44
2023-01-25T11:43:16.648Z,100750.34
2023-01-25T11:44:49.286Z,100733.16
2023-01-25T11:46:14.186Z,100739.22
2023-01-25T11:47:51.083Z,100732.63
2023-01-25T11:49:27.243Z,100733.03
2023-01-25T11:50:42.317Z,100737.34
2023-01-25T11:51:48.111Z,100736.59
2023-01-25T11:53:12.977Z,100727.13
2023-01-25T11:54:30.072Z,100738.31
2023-01-25T11:55:39.465Z,100730.44
2023-01-25T11:56:57.629Z,100727.78
2023-01-25T11:58:05.655Z,100728.53
2023-01-25T11:59:42.364Z,100720.16
2023-01-25T12:00:45.078Z,100719.66
2023-01-25T12:02:09.975Z,100715.41
2023-01-25T12:03:37.123Z,100709.50
2023-01-25T12:05:12.646Z,100705.19
2023-01-25T12:06:44.274Z,100702.41
2023-01-25T12:08:04.422Z,100695.25
2023-01-25T12:09:26.503Z,100687.31
2023-01-25T12:10:49.842Z,100689.03
2023-01-25T12:12:19.929Z,100691.66
2023-01-25T12:13:41.085Z,100683.75
2023-01-25T12:15:15.980Z,100686.25
2023-01-25T12:16:34.104Z,100684.41
2023-01-25T12:17:47.742Z,100681.13
2023-01-25T12:19:23.430Z,100671.50
2023-01-25T12:20:31.718Z,100672.31
2023-01-25T12:21:48.899Z,100673.22
2023-01-25T12:23:07.207Z,100672.41
2023-01-25T12:24:33.424Z,100666.38
2023-01-25T12:26:10.986Z,100663.19
2023-01-25T12:27:35.076Z,100657.28
2023-01-25T12:28:45.943Z,100654.88
2023-01-25T12:30:00.516Z,100651.47
2023-01-25T12:31:09.588Z,100652.06
2023-01-25T12:32:19.603Z,100649.41
2023-01-25T12:33:31.934Z,100647.66
2023-01-25T12:34:36.877Z,100646.09
2023-01-25T12:35:44.881Z,100649.31
2023-01-25T12:36:49.343Z,100643.31
2023-01-25T12:37:58.399Z,100634.66
2023-01-25T12:39:07.032Z,100642.41
2023-01-25T12:40:18.914Z,100628.97
2023-01-25T12:41:31.066Z,100632.38
2023-01-25T12:42:57.524Z,100628.97
2023-01-25T12:44:11.935Z,100627.19
2023-01-25T12:45:16.918Z,100628.09
2023-01-25T12:46:29.277Z,100622.19
2023-01-25T12:47:50.309Z,100623.81
2023-01-25T12:48:56.412Z,100614.38
2023-01-25T12:50:14.942Z,100618.03
2023-01-25T12:51:21.516Z,100616.31
2023-01-25T12:52:34.054Z,100615.47
2023-01-25T12:53:38.466Z,100612.94
2023-01-25T12:54:43.644Z,100612.06
2023-01-25T12:55:48.513Z,100616.38
2023-01-25T12:57:07.342Z,100615.19
2023-01-25T12:58:51.552Z,100613.31
2023-01-25T13:00:19.720Z,100613.41
2023-01-25T13:01:30.587Z,100607.47
2023-01-25T13:02:51.901Z,100613.47
2023-01-25T13:04:38.819Z,100608.03
2023-01-25T13:06:02.713Z,100606.31
2023-01-25T13:07:19.223Z,100595.91
2023-01-25T13:08:32.046Z,100595.09
2023-01-25T13:09:45.418Z,100595.16
2023-01-25T13:10:51.456Z,100584.59